Time;durP1;ratioP1;P1;durP2;ratioP2;P2;SDS_P1;SDS_P2;PMS_P1;PMS_P2;Temp;Humidity;BMP_temperature;BMP_pressure;BME280_temperature;BME280_humidity;BME280_pressure;Samples;Min_cycle;Max_cycle;Signal;HPM_P1;HPM_P2
2021/07/13 04:32:43;;;;;;;6.47;5.77;;;17.70;99.90;;;;;;5185786;23;20519;-79
2021/07/13 04:35:09;;;;;;;6.47;5.90;;;17.80;99.90;;;;;;4968840;28;20420;-83
2021/07/13 04:37:35;;;;;;;6.40;5.80;;;17.80;99.90;;;;;;4969910;29;20184;-81
2021/07/13 04:40:01;;;;;;;6.53;5.93;;;17.80;99.90;;;;;;4959248;28;20472;-81
2021/07/13 04:42:27;;;;;;;7.30;6.30;;;17.80;99.90;;;;;;4953370;28;20888;-81
2021/07/13 04:44:52;;;;;;;8.07;6.20;;;17.90;99.90;;;;;;4937167;29;20193;-82
2021/07/13 04:47:18;;;;;;;7.17;6.57;;;17.90;99.90;;;;;;4937541;29;20208;-83
2021/07/13 04:49:43;;;;;;;7.13;6.53;;;17.90;99.90;;;;;;4936927;29;20227;-81
2021/07/13 04:52:09;;;;;;;8.47;7.30;;;18.00;99.90;;;;;;4937644;29;20207;-81
2021/07/13 04:54:34;;;;;;;7.43;6.73;;;18.00;99.90;;;;;;4940175;29;20272;-82
2021/07/13 04:57:01;;;;;;;6.27;5.73;;;18.00;99.90;;;;;;4938302;29;20236;-81
2021/07/13 04:59:27;;;;;;;7.60;6.90;;;18.10;99.90;;;;;;4950434;29;20204;-84
2021/07/13 05:01:52;;;;;;;6.73;6.23;;;18.10;99.90;;;;;;4954894;28;20452;-81
2021/07/13 05:04:18;;;;;;;7.40;6.70;;;18.10;99.90;;;;;;4943860;29;20245;-81
2021/07/13 05:06:43;;;;;;;7.40;6.70;;;18.20;99.90;;;;;;4936105;29;20249;-81
2021/07/13 05:09:09;;;;;;;6.13;5.53;;;18.20;99.90;;;;;;4943864;29;20301;-81
2021/07/13 05:11:35;;;;;;;6.40;5.63;;;18.20;99.90;;;;;;4940995;28;20208;-81
2021/07/13 05:14:02;;;;;;;5.50;5.07;;;18.30;99.90;;;;;;4935498;29;21009;-82
2021/07/13 05:16:28;;;;;;;5.80;5.30;;;18.30;99.90;;;;;;4936189;29;20252;-81
2021/07/13 05:18:54;;;;;;;4.30;4.00;;;18.30;99.90;;;;;;4936902;29;20788;-81
2021/07/13 05:21:19;;;;;;;4.13;3.70;;;18.30;99.90;;;;;;4937867;29;20452;-82
2021/07/13 05:23:45;;;;;;;4.43;4.00;;;18.30;99.90;;;;;;4938151;29;20189;-81
2021/07/13 05:26:11;;;;;;;4.87;4.30;;;18.30;99.90;;;;;;4936423;29;20193;-82
2021/07/13 05:28:36;;;;;;;7.40;5.13;;;18.30;99.90;;;;;;4936769;29;20417;-81
2021/07/13 05:31:02;;;;;;;6.97;5.17;;;18.30;99.90;;;;;;4936495;29;20209;-82
2021/07/13 05:33:28;;;;;;;7.77;5.80;;;18.40;99.90;;;;;;4940658;29;20292;-81
2021/07/13 05:35:53;;;;;;;5.23;4.47;;;18.40;99.90;;;;;;4936599;29;20662;-82
2021/07/13 05:38:19;;;;;;;6.37;5.73;;;18.50;99.90;;;;;;4947886;29;20658;-81
2021/07/13 05:40:45;;;;;;;5.40;4.33;;;18.50;99.90;;;;;;4937110;29;20697;-81
2021/07/13 05:43:13;;;;;;;8.63;4.50;;;18.50;99.90;;;;;;4955452;28;20176;-81
2021/07/13 05:45:39;;;;;;;3.80;3.50;;;18.50;99.90;;;;;;4954862;28;20428;-81
2021/07/13 05:48:04;;;;;;;4.07;3.00;;;18.60;99.90;;;;;;4937086;29;20531;-81
2021/07/13 05:50:30;;;;;;;3.07;2.50;;;18.50;99.90;;;;;;4937089;29;20189;-81
2021/07/13 05:52:57;;;;;;;3.10;2.73;;;18.60;99.90;;;;;;4937498;29;20212;-81
2021/07/13 05:55:24;;;;;;;4.00;3.60;;;18.60;99.90;;;;;;4937548;29;20225;-81
2021/07/13 05:57:50;;;;;;;5.10;4.00;;;18.60;99.90;;;;;;4936607;29;20539;-81
2021/07/13 06:00:16;;;;;;;4.53;4.20;;;18.70;99.90;;;;;;4938567;29;20468;-82
2021/07/13 06:02:41;;;;;;;6.20;3.57;;;18.70;99.90;;;;;;4936821;29;20457;-80
2021/07/13 06:05:07;;;;;;;3.80;3.50;;;18.70;99.90;;;;;;4935477;29;20839;-81
2021/07/13 06:07:44;;;;;;;9.23;4.20;;;18.70;99.90;;;;;;4937463;29;20183;-82
2021/07/13 06:10:10;;;;;;;4.50;3.80;;;18.70;99.90;;;;;;4936622;29;20444;-81
2021/07/13 06:12:36;;;;;;;7.17;3.30;;;18.60;99.90;;;;;;4936650;29;20444;-81
2021/07/13 06:15:03;;;;;;;4.43;3.03;;;18.60;99.90;;;;;;4936068;29;20815;-82
2021/07/13 06:17:29;;;;;;;7.70;2.77;;;18.60;99.90;;;;;;4935562;29;20216;-79
2021/07/13 06:19:55;;;;;;;3.80;2.70;;;18.60;99.90;;;;;;4935246;29;20476;-80
2021/07/13 06:22:20;;;;;;;3.77;3.47;;;18.60;99.90;;;;;;4936412;29;20213;-79
2021/07/13 06:24:46;;;;;;;4.07;2.77;;;18.50;99.90;;;;;;4941410;29;20455;-80
2021/07/13 06:27:12;;;;;;;6.17;2.97;;;18.60;99.90;;;;;;4938453;29;20784;-80
2021/07/13 06:29:37;;;;;;;7.03;3.23;;;18.50;99.90;;;;;;4936916;29;20229;-82
2021/07/13 06:32:03;;;;;;;4.43;3.50;;;18.40;99.90;;;;;;4950231;28;20225;-83
2021/07/13 06:34:29;;;;;;;5.77;3.50;;;18.40;99.90;;;;;;4941876;28;20201;-83
2021/07/13 06:36:54;;;;;;;4.13;3.67;;;18.50;99.90;;;;;;4937665;29;20467;-82
2021/07/13 06:39:20;;;;;;;7.00;4.00;;;18.40;99.90;;;;;;4941701;29;20736;-83
2021/07/13 06:41:45;;;;;;;5.50;4.30;;;18.50;99.90;;;;;;4945095;29;20210;-81
2021/07/13 06:44:11;;;;;;;8.50;4.60;;;18.60;99.90;;;;;;4941490;29;20181;-80
2021/07/13 06:46:38;;;;;;;5.07;4.53;;;18.60;99.90;;;;;;4941377;29;20196;-82
2021/07/13 06:49:03;;;;;;;8.37;3.83;;;18.70;99.90;;;;;;4942494;29;20392;-81
2021/07/13 06:51:29;;;;;;;5.20;4.73;;;18.70;99.90;;;;;;4941861;29;20487;-81
2021/07/13 06:53:54;;;;;;;4.83;4.43;;;18.70;99.90;;;;;;4942489;29;20190;-81
2021/07/13 06:56:20;;;;;;;4.17;3.43;;;18.70;99.90;;;;;;4937366;29;20194;-81
2021/07/13 06:58:45;;;;;;;3.77;3.50;;;18.70;99.90;;;;;;4937068;29;20170;-81
2021/07/13 07:01:11;;;;;;;3.97;3.60;;;18.70;99.90;;;;;;4939620;29;20264;-80
2021/07/13 07:03:36;;;;;;;4.60;3.57;;;18.70;99.90;;;;;;4940427;29;20205;-81
2021/07/13 07:06:02;;;;;;;3.70;3.50;;;18.70;99.90;;;;;;4942422;29;20186;-81
2021/07/13 07:08:28;;;;;;;4.03;3.10;;;18.70;99.90;;;;;;4950335;29;20185;-81
2021/07/13 07:10:53;;;;;;;4.03;3.20;;;18.70;99.90;;;;;;4942759;29;20224;-80
2021/07/13 07:13:19;;;;;;;4.63;3.60;;;18.70;99.90;;;;;;4942054;29;20189;-80
2021/07/13 07:15:44;;;;;;;6.50;3.40;;;18.60;99.90;;;;;;4941734;29;20280;-81
2021/07/13 07:18:10;;;;;;;3.17;2.97;;;18.60;99.90;;;;;;4940156;29;20208;-81
2021/07/13 07:20:35;;;;;;;3.60;3.30;;;18.60;99.90;;;;;;4948588;29;20221;-81
2021/07/13 07:23:01;;;;;;;4.07;3.63;;;18.50;99.90;;;;;;4957186;29;20276;-82
2021/07/13 07:25:27;;;;;;;4.00;3.60;;;18.60;99.90;;;;;;4945946;29;20193;-82
2021/07/13 07:27:56;;;;;;;4.90;3.87;;;18.50;99.90;;;;;;4948036;28;20192;-82
2021/07/13 07:30:23;;;;;;;4.87;3.50;;;18.50;99.90;;;;;;4959038;28;20980;-83
2021/07/13 07:32:49;;;;;;;3.97;3.57;;;18.50;99.90;;;;;;4958979;28;20459;-82
2021/07/13 07:35:15;;;;;;;5.63;3.50;;;18.40;99.90;;;;;;4957896;28;20487;-80
2021/07/13 07:37:41;;;;;;;8.57;3.13;;;18.50;99.90;;;;;;4941311;29;20512;-82
2021/07/13 07:40:11;;;;;;;7.40;3.13;;;18.40;99.90;;;;;;4939201;29;20527;-81
2021/07/13 07:42:38;;;;;;;4.77;3.57;;;18.40;99.90;;;;;;4940475;29;20538;-80
2021/07/13 07:45:05;;;;;;;5.00;3.40;;;18.40;99.90;;;;;;4938028;29;20432;-81
2021/07/13 07:47:31;;;;;;;5.20;3.37;;;18.40;99.90;;;;;;4938743;29;20457;-81
2021/07/13 07:49:56;;;;;;;5.50;2.47;;;18.30;99.90;;;;;;4937326;29;20429;-81
2021/07/13 07:52:22;;;;;;;2.97;2.77;;;18.30;99.90;;;;;;4939405;29;20201;-81
2021/07/13 07:54:47;;;;;;;3.60;3.30;;;18.30;99.90;;;;;;4938625;29;20193;-81
2021/07/13 07:57:13;;;;;;;5.90;3.07;;;18.20;99.90;;;;;;4942024;29;20181;-80
2021/07/13 07:59:38;;;;;;;5.00;3.60;;;18.20;99.90;;;;;;4942535;29;20205;-81
2021/07/13 08:02:04;;;;;;;6.97;4.80;;;18.20;99.90;;;;;;4942318;29;20280;-82
2021/07/13 08:04:30;;;;;;;4.37;2.60;;;18.20;99.90;;;;;;4943994;29;20213;-81
2021/07/13 08:06:55;;;;;;;5.83;3.70;;;18.20;99.90;;;;;;4942086;29;20193;-80
2021/07/13 08:09:21;;;;;;;4.53;3.90;;;18.20;99.90;;;;;;4941789;29;20213;-81
2021/07/13 08:11:47;;;;;;;4.07;3.20;;;18.20;99.90;;;;;;4942473;29;20236;-81
2021/07/13 08:14:12;;;;;;;4.17;3.70;;;18.20;99.90;;;;;;4942079;29;20185;-81
2021/07/13 08:16:40;;;;;;;6.83;4.10;;;18.30;99.90;;;;;;4940830;29;20277;-80
2021/07/13 08:19:08;;;;;;;6.00;3.80;;;18.30;99.90;;;;;;4942291;29;20213;-81
2021/07/13 08:21:34;;;;;;;5.30;4.27;;;18.40;99.90;;;;;;4941268;29;20438;-81
2021/07/13 08:24:00;;;;;;;4.47;4.10;;;18.40;99.90;;;;;;4940307;29;20429;-80
2021/07/13 08:26:26;;;;;;;10.33;4.37;;;18.50;99.90;;;;;;4942287;29;20185;-81
2021/07/13 08:28:52;;;;;;;5.33;3.87;;;18.50;99.90;;;;;;4942906;29;20425;-81
2021/07/13 08:31:18;;;;;;;7.67;5.07;;;18.50;99.90;;;;;;4941668;29;20453;-81
2021/07/13 08:33:43;;;;;;;8.17;4.47;;;18.60;99.90;;;;;;4940959;29;20651;-80
2021/07/13 08:36:09;;;;;;;6.83;5.17;;;18.60;99.90;;;;;;4941411;29;20237;-80
2021/07/13 08:38:35;;;;;;;8.20;4.77;;;18.70;99.90;;;;;;4939945;29;20174;-79
2021/07/13 08:41:01;;;;;;;6.27;5.20;;;18.70;99.90;;;;;;4937666;29;20472;-79
2021/07/13 08:43:27;;;;;;;5.33;4.70;;;18.70;99.90;;;;;;4937297;29;20181;-79
2021/07/13 08:45:54;;;;;;;5.57;5.10;;;18.70;99.90;;;;;;4938070;29;20793;-79
2021/07/13 08:48:22;;;;;;;4.87;4.47;;;18.60;99.90;;;;;;4937354;29;20410;-79
2021/07/13 08:50:47;;;;;;;5.13;4.33;;;18.60;99.90;;;;;;4938616;29;20429;-80
2021/07/13 08:53:13;;;;;;;5.93;4.60;;;18.60;99.90;;;;;;4941142;29;20451;-79
2021/07/13 08:55:38;;;;;;;3.43;2.90;;;18.60;99.90;;;;;;4941156;29;20220;-80
2021/07/13 08:58:04;;;;;;;4.37;3.27;;;18.50;99.90;;;;;;4939824;29;20182;-80
2021/07/13 09:00:30;;;;;;;3.50;3.20;;;18.50;99.90;;;;;;4937193;29;20664;-80
2021/07/13 09:03:18;;;;;;;3.67;3.37;;;18.40;99.90;;;;;;4937348;29;20203;-80
2021/07/13 09:05:52;;;;;;;2.80;2.60;;;18.40;99.90;;;;;;4948035;29;20186;-77
2021/07/13 09:08:26;;;;;;;3.27;2.60;;;18.30;99.90;;;;;;4939539;29;20476;-80
2021/07/13 09:11:00;;;;;;;2.53;1.90;;;18.30;99.90;;;;;;4938908;29;20413;-79
2021/07/13 09:13:31;;;;;;;1.87;1.10;;;18.10;99.90;;;;;;4936552;29;20484;-81
2021/07/13 09:16:01;;;;;;;5.13;1.10;;;18.00;99.90;;;;;;4936747;29;20421;-80
2021/07/13 09:18:35;;;;;;;2.10;0.97;;;17.90;99.90;;;;;;4938241;29;20477;-81
2021/07/13 09:21:32;;;;;;;1.73;1.10;;;17.80;99.90;;;;;;4937492;29;20510;-80
2021/07/13 09:24:10;;;;;;;1.33;0.70;;;17.70;99.90;;;;;;4938984;29;20869;-80
2021/07/13 09:26:56;;;;;;;1.30;1.20;;;17.70;99.90;;;;;;4937958;29;20445;-80
2021/07/13 09:29:36;;;;;;;2.53;1.00;;;17.70;99.90;;;;;;4943215;29;20418;-79
2021/07/13 09:32:28;;;;;;;1.13;0.70;;;17.70;99.90;;;;;;4938004;29;20539;-79
2021/07/13 09:35:13;;;;;;;2.20;0.70;;;17.60;99.90;;;;;;4937538;29;20420;-79
2021/07/13 09:37:47;;;;;;;0.50;0.43;;;17.50;99.90;;;;;;4936641;29;20425;-79
2021/07/13 09:40:14;;;;;;;2.50;0.53;;;17.30;99.90;;;;;;4936434;29;20515;-78
2021/07/13 09:42:49;;;;;;;0.60;0.40;;;17.10;99.90;;;;;;4939419;29;20452;-79
2021/07/13 09:45:28;;;;;;;0.40;0.40;;;17.10;99.90;;;;;;4938841;29;20787;-79
2021/07/13 09:47:56;;;;;;;1.80;0.40;;;17.00;99.90;;;;;;4933547;29;20435;-78
2021/07/13 09:50:35;;;;;;;0.97;0.40;;;17.00;99.90;;;;;;4935242;29;20417;-78
2021/07/13 09:53:03;;;;;;;4.10;0.87;;;16.90;99.90;;;;;;4936335;29;20698;-79
2021/07/13 09:55:29;;;;;;;0.80;0.30;;;16.80;99.90;;;;;;4934389;29;20640;-77
2021/07/13 09:58:23;;;;;;;0.40;0.30;;;16.70;99.90;;;;;;4934133;29;20540;-79
2021/07/13 10:00:53;;;;;;;1.13;0.40;;;16.60;99.90;;;;;;4934590;29;20209;-79
2021/07/13 10:03:21;;;;;;;0.40;0.30;;;16.60;99.90;;;;;;4934937;29;20490;-79
2021/07/13 10:05:48;;;;;;;0.50;0.40;;;16.50;99.90;;;;;;4935239;29;20944;-78
2021/07/13 10:08:15;;;;;;;0.87;0.87;;;16.50;99.90;;;;;;4939096;29;20488;-78
2021/07/13 10:10:42;;;;;;;0.50;0.40;;;16.50;99.90;;;;;;4946195;29;20419;-78
2021/07/13 10:13:10;;;;;;;0.40;0.40;;;16.50;99.90;;;;;;4938240;29;20476;-79
2021/07/13 10:15:36;;;;;;;1.53;0.60;;;16.50;99.90;;;;;;4936070;29;20441;-79
2021/07/13 10:18:03;;;;;;;1.00;0.43;;;16.50;99.90;;;;;;4935755;29;20481;-79
2021/07/13 10:20:30;;;;;;;0.50;0.40;;;16.50;99.90;;;;;;4936095;29;20801;-80
2021/07/13 10:22:57;;;;;;;1.47;0.40;;;16.60;99.90;;;;;;4935791;29;20445;-79
2021/07/13 10:25:38;;;;;;;0.50;0.40;;;16.60;99.90;;;;;;4935791;29;20525;-79
2021/07/13 10:28:04;;;;;;;5.30;0.47;;;16.60;99.90;;;;;;4936002;29;20427;-79
2021/07/13 10:30:30;;;;;;;0.40;0.40;;;16.50;99.90;;;;;;4935700;29;20452;-79
2021/07/13 10:32:56;;;;;;;1.00;0.50;;;16.60;99.90;;;;;;4935300;29;20992;-78
2021/07/13 10:35:24;;;;;;;0.40;0.30;;;16.70;99.90;;;;;;4934396;29;20178;-78
2021/07/13 10:37:54;;;;;;;1.50;0.67;;;16.70;99.90;;;;;;4934048;29;20512;-79
2021/07/13 10:40:26;;;;;;;1.07;0.50;;;16.60;99.90;;;;;;4937654;29;20479;-78
2021/07/13 10:42:52;;;;;;;2.00;0.40;;;16.70;99.90;;;;;;4938332;29;20871;-77
2021/07/13 10:45:33;;;;;;;5.83;0.40;;;16.70;99.90;;;;;;4939191;29;20936;-79
2021/07/13 10:48:14;;;;;;;3.33;0.40;;;16.70;99.90;;;;;;4938923;29;20456;-79
2021/07/13 10:51:03;;;;;;;0.40;0.30;;;16.60;99.90;;;;;;4939199;29;20550;-78
2021/07/13 10:53:39;;;;;;;2.70;0.40;;;16.60;99.90;;;;;;4939370;29;20423;-78
2021/07/13 10:56:06;;;;;;;1.80;0.40;;;16.50;99.90;;;;;;4938937;29;20419;-79
2021/07/13 10:58:44;;;;;;;2.63;0.50;;;16.50;99.90;;;;;;4939214;29;20456;-79
2021/07/13 11:01:13;;;;;;;0.50;0.30;;;16.50;99.90;;;;;;4938171;29;20523;-79
2021/07/13 11:03:39;;;;;;;0.70;0.40;;;16.50;99.90;;;;;;4937302;29;20941;-79
2021/07/13 11:06:21;;;;;;;0.40;0.30;;;16.50;99.90;;;;;;4937965;29;20505;-78
2021/07/13 11:08:50;;;;;;;0.40;0.40;;;16.50;99.90;;;;;;4939020;29;20223;-79
2021/07/13 11:14:05;;;;;;;1.13;0.30;;;16.60;99.90;;;;;;4939479;29;20491;-78
2021/07/13 11:16:41;;;;;;;0.77;0.60;;;16.70;99.90;;;;;;4937913;29;20219;-78
2021/07/13 11:19:12;;;;;;;0.90;0.47;;;16.90;99.90;;;;;;4939057;29;20895;-78
2021/07/13 11:21:41;;;;;;;5.50;0.50;;;17.00;99.90;;;;;;4938321;29;20520;-79
2021/07/13 11:24:06;;;;;;;0.50;0.50;;;17.00;99.90;;;;;;4938853;29;20419;-78
2021/07/13 11:26:52;;;;;;;0.50;0.40;;;17.00;99.90;;;;;;4937778;29;20416;-78
2021/07/13 11:29:19;;;;;;;0.40;0.40;;;17.00;99.90;;;;;;4937171;29;20320;-78
2021/07/13 11:31:49;;;;;;;0.50;0.40;;;16.90;99.90;;;;;;4936945;29;20449;-78
2021/07/13 11:34:17;;;;;;;0.87;0.40;;;16.90;99.90;;;;;;4935653;29;20432;-77
2021/07/13 11:36:49;;;;;;;0.67;0.37;;;16.80;99.90;;;;;;4937589;29;20424;-77
2021/07/13 11:39:21;;;;;;;4.20;0.40;;;16.80;99.90;;;;;;4936807;29;20842;-78
2021/07/13 11:41:46;;;;;;;0.80;0.40;;;16.80;99.90;;;;;;4936297;29;20437;-77
2021/07/13 11:44:12;;;;;;;3.13;0.40;;;16.80;99.90;;;;;;4937355;29;20423;-77
2021/07/13 11:46:42;;;;;;;1.33;0.30;;;16.80;99.90;;;;;;4937151;29;20177;-77
2021/07/13 11:49:09;;;;;;;2.97;0.50;;;16.80;99.90;;;;;;4936552;29;20409;-77
2021/07/13 11:51:39;;;;;;;2.20;0.60;;;16.80;99.90;;;;;;4936766;29;20519;-79
2021/07/13 11:54:14;;;;;;;0.40;0.33;;;16.80;99.90;;;;;;4936902;29;20417;-79
2021/07/13 11:56:48;;;;;;;0.70;0.40;;;16.80;99.90;;;;;;4936964;29;20405;-79
2021/07/13 11:59:15;;;;;;;1.70;0.60;;;16.80;99.90;;;;;;4936622;29;20428;-78
2021/07/13 12:01:43;;;;;;;0.80;0.40;;;16.90;99.90;;;;;;4938188;29;20448;-78
2021/07/13 12:04:13;;;;;;;1.93;0.50;;;16.90;99.90;;;;;;4936766;29;20516;-78
2021/07/13 12:06:41;;;;;;;0.50;0.50;;;16.90;99.90;;;;;;4936390;29;20492;-78
2021/07/13 12:09:12;;;;;;;1.87;0.60;;;17.00;99.90;;;;;;4936315;29;20949;-78
2021/07/13 12:11:41;;;;;;;0.50;0.50;;;17.10;99.90;;;;;;4936355;29;20437;-78
2021/07/13 12:14:11;;;;;;;4.00;0.40;;;17.10;99.90;;;;;;4934554;29;20480;-78
2021/07/13 12:16:37;;;;;;;2.00;0.63;;;17.20;99.90;;;;;;4936426;29;20424;-78
2021/07/13 12:19:10;;;;;;;0.50;0.50;;;17.30;99.90;;;;;;4937820;29;20425;-78
2021/07/13 12:21:52;;;;;;;0.40;0.40;;;17.40;99.90;;;;;;4936544;29;20244;-77
2021/07/13 12:24:24;;;;;;;1.07;0.50;;;17.50;99.90;;;;;;4934946;29;20418;-78
2021/07/13 12:26:55;;;;;;;1.37;0.40;;;17.50;99.90;;;;;;4936330;29;20421;-78
2021/07/13 12:29:23;;;;;;;0.60;0.40;;;17.60;99.90;;;;;;4936499;29;20805;-78
2021/07/13 12:31:50;;;;;;;0.50;0.43;;;17.60;99.90;;;;;;4935737;29;20511;-77
2021/07/13 12:34:25;;;;;;;3.27;0.60;;;17.70;99.90;;;;;;4936228;29;20424;-78
2021/07/13 12:37:02;;;;;;;0.60;0.60;;;17.70;99.90;;;;;;4935845;29;20471;-77
2021/07/13 12:39:27;;;;;;;1.63;0.50;;;17.70;99.90;;;;;;4935645;29;20707;-77
2021/07/13 12:42:24;;;;;;;0.40;0.40;;;17.70;99.90;;;;;;4934371;29;20524;-77
2021/07/13 12:44:52;;;;;;;1.90;0.40;;;17.70;99.90;;;;;;4934477;29;20216;-77
2021/07/13 12:47:24;;;;;;;2.00;0.50;;;17.70;99.90;;;;;;4936329;29;20420;-79
2021/07/13 12:50:26;;;;;;;0.47;0.43;;;17.60;99.90;;;;;;4935902;29;20785;-77
2021/07/13 12:53:08;;;;;;;3.37;0.70;;;17.70;99.90;;;;;;4935203;29;20470;-77
2021/07/13 12:55:45;;;;;;;1.53;0.50;;;17.80;99.90;;;;;;4950756;29;20489;-79
2021/07/13 12:58:24;;;;;;;4.00;0.60;;;17.80;99.90;;;;;;4948039;29;20583;-78
2021/07/13 13:00:54;;;;;;;4.10;0.50;;;17.90;99.90;;;;;;4935572;29;20461;-77
2021/07/13 13:03:33;;;;;;;1.37;0.60;;;18.00;99.90;;;;;;4935527;29;20837;-77
2021/07/13 13:06:00;;;;;;;1.20;0.50;;;18.10;99.90;;;;;;4935432;29;20413;-77
2021/07/13 13:08:32;;;;;;;1.90;0.60;;;18.10;99.90;;;;;;4935253;29;20417;-77
2021/07/13 13:11:22;;;;;;;0.50;0.43;;;18.10;99.90;;;;;;4934983;29;20516;-78
2021/07/13 13:13:48;;;;;;;3.63;0.87;;;18.20;99.90;;;;;;4935095;29;20420;-78
2021/07/13 13:16:22;;;;;;;4.00;0.40;;;18.40;99.90;;;;;;4933902;29;20432;-78
2021/07/13 13:18:47;;;;;;;0.60;0.60;;;18.30;99.90;;;;;;4934948;29;20790;-77
2021/07/13 13:21:13;;;;;;;1.83;0.60;;;18.30;99.90;;;;;;4935096;29;20465;-77
2021/07/13 13:23:39;;;;;;;1.80;0.60;;;18.20;99.90;;;;;;4934838;29;20177;-78
2021/07/13 13:26:05;;;;;;;0.47;0.40;;;18.10;99.90;;;;;;4934499;29;20178;-77
2021/07/13 13:28:30;;;;;;;1.77;0.60;;;18.10;99.90;;;;;;4935166;29;20646;-78
2021/07/13 13:30:56;;;;;;;0.70;0.50;;;18.20;99.90;;;;;;4934468;29;20233;-78
2021/07/13 13:33:21;;;;;;;0.60;0.50;;;18.20;99.90;;;;;;4932264;29;20181;-78
2021/07/13 13:36:10;;;;;;;0.60;0.50;;;18.10;99.90;;;;;;4934147;29;20181;-76
2021/07/13 13:38:39;;;;;;;0.50;0.50;;;18.10;99.90;;;;;;4934913;29;20181;-77
2021/07/13 13:41:05;;;;;;;1.57;0.43;;;18.20;99.90;;;;;;4933690;29;20469;-76
2021/07/13 13:43:30;;;;;;;3.27;1.23;;;18.20;99.90;;;;;;4933161;29;20444;-77
2021/07/13 13:45:56;;;;;;;1.17;0.47;;;18.40;99.90;;;;;;4933022;29;20188;-76
2021/07/13 13:48:22;;;;;;;0.60;0.40;;;18.40;99.90;;;;;;4932572;29;20264;-76
2021/07/13 13:50:47;;;;;;;3.90;0.60;;;18.30;99.90;;;;;;4932565;29;20217;-76
2021/07/13 13:53:13;;;;;;;0.60;0.53;;;18.30;99.90;;;;;;4932923;29;20602;-76
2021/07/13 13:55:41;;;;;;;0.60;0.50;;;18.30;99.90;;;;;;4932764;29;20188;-77
2021/07/13 13:58:07;;;;;;;0.60;0.50;;;18.50;99.90;;;;;;4932652;29;20186;-76
2021/07/13 14:00:33;;;;;;;1.43;0.67;;;18.50;99.90;;;;;;4932575;29;20457;-78
2021/07/13 14:02:58;;;;;;;0.70;0.60;;;18.50;99.90;;;;;;4932826;29;20580;-77
2021/07/13 14:05:24;;;;;;;0.70;0.63;;;18.60;99.90;;;;;;4932609;29;20185;-77
2021/07/13 14:07:50;;;;;;;0.50;0.50;;;18.70;99.90;;;;;;4932260;29;20604;-77
2021/07/13 14:10:17;;;;;;;0.50;0.50;;;18.80;99.90;;;;;;4933329;29;20597;-80
2021/07/13 14:12:43;;;;;;;0.50;0.50;;;18.90;99.90;;;;;;4931130;29;20540;-77
2021/07/13 14:15:11;;;;;;;1.13;0.60;;;19.20;99.90;;;;;;4934330;29;20857;-78
2021/07/13 14:17:38;;;;;;;0.60;0.60;;;19.30;99.90;;;;;;4934443;29;20181;-78
2021/07/13 14:20:06;;;;;;;0.60;0.50;;;19.20;99.90;;;;;;4933954;29;20990;-77
2021/07/13 14:22:31;;;;;;;1.60;0.50;;;19.10;99.90;;;;;;4934155;29;20441;-78
2021/07/13 14:24:57;;;;;;;0.80;0.60;;;19.00;99.90;;;;;;4932643;29;20860;-80
2021/07/13 14:27:22;;;;;;;0.83;0.50;;;19.00;99.90;;;;;;4934638;29;20185;-79
2021/07/13 14:29:48;;;;;;;1.17;0.70;;;19.00;99.90;;;;;;4935400;29;20189;-79
2021/07/13 14:32:13;;;;;;;3.77;0.63;;;19.10;99.90;;;;;;4934404;29;20338;-78
2021/07/13 14:34:39;;;;;;;0.70;0.70;;;19.10;99.90;;;;;;4933845;29;20201;-78
2021/07/13 14:37:05;;;;;;;2.10;0.60;;;19.10;99.90;;;;;;4933918;29;20196;-78
2021/07/13 14:39:31;;;;;;;0.60;0.60;;;19.00;99.90;;;;;;4933686;29;20197;-77
2021/07/13 14:41:57;;;;;;;0.70;0.70;;;18.80;99.90;;;;;;4933299;29;20476;-78
2021/07/13 14:44:22;;;;;;;0.70;0.70;;;18.60;99.90;;;;;;4934381;29;20422;-78
2021/07/13 14:46:48;;;;;;;0.90;0.90;;;18.50;99.90;;;;;;4934308;29;20184;-79
2021/07/13 14:49:14;;;;;;;1.63;0.60;;;18.40;99.90;;;;;;4935978;29;20173;-79
2021/07/13 14:51:40;;;;;;;0.80;0.80;;;18.30;99.90;;;;;;4936126;29;20209;-77
2021/07/13 14:54:05;;;;;;;0.90;0.60;;;18.30;99.90;;;;;;4934917;29;20180;-78
2021/07/13 14:56:31;;;;;;;0.70;0.67;;;18.30;99.90;;;;;;4933237;29;20208;-78
2021/07/13 14:58:57;;;;;;;0.60;0.57;;;18.30;99.90;;;;;;4933817;29;20203;-79
2021/07/13 15:01:23;;;;;;;0.80;0.80;;;18.20;99.90;;;;;;4932745;29;20626;-79
2021/07/13 15:03:48;;;;;;;0.80;0.63;;;18.10;99.90;;;;;;4934856;29;20170;-79
2021/07/13 15:06:15;;;;;;;0.90;0.70;;;18.20;99.90;;;;;;4935187;29;20187;-79
2021/07/13 15:08:40;;;;;;;0.70;0.70;;;18.20;99.90;;;;;;4935429;29;20216;-77
2021/07/13 15:11:07;;;;;;;1.00;0.70;;;18.20;99.90;;;;;;4934103;29;20437;-78
2021/07/13 15:13:32;;;;;;;0.70;0.70;;;18.20;99.90;;;;;;4934592;29;20413;-78
2021/07/13 15:15:58;;;;;;;0.60;0.60;;;18.20;99.90;;;;;;4933803;29;20826;-78
2021/07/13 15:18:24;;;;;;;0.60;0.50;;;18.20;99.90;;;;;;4933924;29;20715;-78
2021/07/13 15:20:49;;;;;;;0.90;0.90;;;18.20;99.90;;;;;;4933433;29;20201;-78
2021/07/13 15:23:16;;;;;;;0.87;0.70;;;18.20;99.90;;;;;;4933529;29;20212;-79
2021/07/13 15:25:42;;;;;;;0.80;0.80;;;18.20;99.90;;;;;;4935853;29;20241;-79
2021/07/13 15:28:07;;;;;;;0.70;0.60;;;18.20;99.90;;;;;;4937236;29;20449;-79
2021/07/13 15:30:33;;;;;;;1.90;0.60;;;18.10;99.90;;;;;;4937462;29;20192;-79
2021/07/13 15:32:59;;;;;;;0.80;0.80;;;18.10;99.90;;;;;;4937042;29;20370;-79
2021/07/13 15:35:25;;;;;;;1.87;0.70;;;18.10;99.90;;;;;;4937365;29;20725;-80
2021/07/13 15:37:51;;;;;;;0.70;0.70;;;18.10;99.90;;;;;;4946237;29;20201;-79
2021/07/13 15:40:17;;;;;;;0.70;0.70;;;18.00;99.90;;;;;;4954117;29;20476;-79
2021/07/13 15:42:42;;;;;;;6.30;0.60;;;18.00;99.90;;;;;;4940615;29;20203;-78
2021/07/13 15:45:10;;;;;;;0.80;0.80;;;18.00;99.90;;;;;;4937496;29;20619;-78
2021/07/13 15:47:36;;;;;;;1.00;0.80;;;18.00;99.90;;;;;;4937461;29;20271;-79
2021/07/13 15:50:02;;;;;;;0.80;0.70;;;18.00;99.90;;;;;;4937300;29;20516;-78
2021/07/13 15:52:28;;;;;;;2.00;0.80;;;18.00;99.90;;;;;;4937568;29;20209;-78
2021/07/13 15:54:53;;;;;;;2.67;0.70;;;18.00;99.90;;;;;;4938203;29;20417;-79
2021/07/13 15:57:18;;;;;;;0.70;0.67;;;18.10;99.90;;;;;;4937318;29;20677;-79
2021/07/13 15:59:44;;;;;;;1.77;0.60;;;18.00;99.90;;;;;;4936908;29;20248;-79
2021/07/13 16:02:10;;;;;;;1.53;0.80;;;18.00;99.90;;;;;;4936996;29;20221;-79
2021/07/13 16:04:35;;;;;;;0.60;0.60;;;17.90;99.90;;;;;;4937374;29;20173;-79
2021/07/13 16:07:01;;;;;;;1.37;0.70;;;17.80;99.90;;;;;;4937267;29;20181;-79
2021/07/13 16:09:26;;;;;;;1.10;0.70;;;17.80;99.90;;;;;;4937364;29;20647;-79
2021/07/13 16:11:53;;;;;;;2.40;0.60;;;17.90;99.90;;;;;;4936752;29;20193;-79
2021/07/13 16:14:19;;;;;;;0.83;0.60;;;17.90;99.90;;;;;;4935588;29;20204;-79
2021/07/13 16:16:45;;;;;;;0.80;0.70;;;17.90;99.90;;;;;;4936651;29;20449;-79
2021/07/13 16:19:10;;;;;;;0.70;0.70;;;18.00;99.90;;;;;;4936303;29;20421;-79
2021/07/13 16:21:37;;;;;;;3.07;0.90;;;18.10;99.90;;;;;;4936826;29;20565;-79
2021/07/13 16:24:03;;;;;;;0.90;0.80;;;18.30;99.90;;;;;;4935985;29;20264;-79
2021/07/13 16:26:29;;;;;;;0.70;0.70;;;18.40;99.90;;;;;;4936506;29;20449;-79
2021/07/13 16:28:54;;;;;;;1.23;0.87;;;18.50;99.90;;;;;;4936649;29;20257;-79
2021/07/13 16:31:20;;;;;;;2.60;0.70;;;18.60;99.90;;;;;;4936299;29;20642;-79
2021/07/13 16:33:47;;;;;;;0.60;0.60;;;18.70;99.90;;;;;;4936235;29;20173;-79
2021/07/13 16:36:13;;;;;;;0.60;0.60;;;18.70;99.90;;;;;;4935648;29;20178;-78
2021/07/13 16:38:39;;;;;;;0.73;0.60;;;18.70;99.90;;;;;;4936350;29;20414;-79
2021/07/13 16:41:05;;;;;;;3.13;0.80;;;18.70;99.90;;;;;;4935893;29;20547;-79
2021/07/13 16:43:30;;;;;;;1.57;0.70;;;18.80;99.90;;;;;;4936276;29;20501;-79
2021/07/13 16:45:56;;;;;;;1.00;0.60;;;18.80;99.90;;;;;;4935828;29;20177;-79
2021/07/13 16:48:21;;;;;;;1.73;0.70;;;18.80;99.90;;;;;;4935821;29;20260;-79
2021/07/13 16:50:47;;;;;;;0.60;0.50;;;18.80;99.90;;;;;;4935912;29;20185;-78
2021/07/13 16:53:13;;;;;;;2.20;0.67;;;18.70;99.90;;;;;;4935091;29;20704;-78
2021/07/13 16:55:38;;;;;;;0.83;0.50;;;18.80;99.90;;;;;;4935026;29;20177;-79
2021/07/13 16:58:04;;;;;;;2.20;0.80;;;18.70;99.90;;;;;;4935734;29;20189;-79
2021/07/13 17:00:31;;;;;;;1.70;0.60;;;18.70;99.90;;;;;;4935491;29;20671;-79
2021/07/13 17:02:56;;;;;;;0.57;0.57;;;18.70;99.90;;;;;;4935318;29;20434;-78
2021/07/13 17:05:23;;;;;;;0.57;0.53;;;18.70;99.90;;;;;;4935830;29;20790;-79
2021/07/13 17:07:51;;;;;;;0.60;0.60;;;18.60;99.90;;;;;;4936439;29;20170;-79
2021/07/13 17:10:17;;;;;;;2.10;0.73;;;18.60;99.90;;;;;;4935730;29;20432;-79
2021/07/13 17:12:43;;;;;;;1.00;1.00;;;18.60;99.90;;;;;;4931510;29;20577;-75
2021/07/13 17:15:09;;;;;;;0.80;0.80;;;18.50;99.90;;;;;;4934728;29;20420;-76
2021/07/13 17:17:35;;;;;;;0.93;0.83;;;18.50;99.90;;;;;;4934761;29;20181;-76
2021/07/13 17:20:01;;;;;;;0.60;0.60;;;18.50;99.90;;;;;;4934566;29;20488;-75
2021/07/13 17:22:26;;;;;;;0.93;0.70;;;18.50;99.90;;;;;;4935450;29;20193;-76
2021/07/13 17:24:52;;;;;;;1.07;0.60;;;18.50;99.90;;;;;;4934316;29;20647;-75
2021/07/13 17:27:17;;;;;;;0.93;0.73;;;18.50;99.90;;;;;;4934367;29;20178;-76